sensor_id;sensor_type;location;lat;lon;timestamp;P1;durP1;ratioP1;P2;durP2;ratioP2
29452;SDS011;16424;50.956;5.320;2023-02-28T00:00:10;13.23;;;6.20;;
29452;SDS011;16424;50.956;5.320;2023-02-28T00:02:38;9.30;;;6.30;;
29452;SDS011;16424;50.956;5.320;2023-02-28T00:05:05;11.50;;;6.35;;
29452;SDS011;16424;50.956;5.320;2023-02-28T00:07:31;13.27;;;6.13;;
29452;SDS011;16424;50.956;5.320;2023-02-28T00:09:57;9.35;;;5.47;;
29452;SDS011;16424;50.956;5.320;2023-02-28T00:12:24;10.02;;;5.15;;
29452;SDS011;16424;50.956;5.320;2023-02-28T00:14:50;13.77;;;5.32;;
29452;SDS011;16424;50.956;5.320;2023-02-28T00:17:16;12.65;;;5.20;;
29452;SDS011;16424;50.956;5.320;2023-02-28T00:19:42;11.15;;;5.55;;
29452;SDS011;16424;50.956;5.320;2023-02-28T00:22:09;10.73;;;5.72;;
29452;SDS011;16424;50.956;5.320;2023-02-28T00:24:35;8.85;;;5.20;;
29452;SDS011;16424;50.956;5.320;2023-02-28T00:27:00;10.73;;;5.47;;
29452;SDS011;16424;50.956;5.320;2023-02-28T00:29:26;12.23;;;5.57;;
29452;SDS011;16424;50.956;5.320;2023-02-28T00:31:51;11.27;;;5.65;;
29452;SDS011;16424;50.956;5.320;2023-02-28T00:34:17;8.10;;;5.00;;
29452;SDS011;16424;50.956;5.320;2023-02-28T00:36:43;11.07;;;5.82;;
29452;SDS011;16424;50.956;5.320;2023-02-28T00:39:11;11.80;;;5.70;;
29452;SDS011;16424;50.956;5.320;2023-02-28T00:41:36;11.43;;;5.40;;
29452;SDS011;16424;50.956;5.320;2023-02-28T00:44:02;14.02;;;6.10;;
29452;SDS011;16424;50.956;5.320;2023-02-28T00:46:28;10.98;;;5.85;;
29452;SDS011;16424;50.956;5.320;2023-02-28T00:48:53;14.98;;;6.45;;
29452;SDS011;16424;50.956;5.320;2023-02-28T00:51:19;9.85;;;6.22;;
29452;SDS011;16424;50.956;5.320;2023-02-28T00:53:45;11.13;;;6.07;;
29452;SDS011;16424;50.956;5.320;2023-02-28T00:56:10;14.10;;;6.68;;
29452;SDS011;16424;50.956;5.320;2023-02-28T00:58:36;10.40;;;5.63;;
29452;SDS011;16424;50.956;5.320;2023-02-28T01:01:02;8.30;;;5.82;;
29452;SDS011;16424;50.956;5.320;2023-02-28T01:03:28;14.23;;;6.30;;
29452;SDS011;16424;50.956;5.320;2023-02-28T01:05:54;11.77;;;6.70;;
29452;SDS011;16424;50.956;5.320;2023-02-28T01:08:19;11.02;;;5.78;;
29452;SDS011;16424;50.956;5.320;2023-02-28T01:10:45;12.85;;;5.70;;
29452;SDS011;16424;50.956;5.320;2023-02-28T01:13:12;9.93;;;6.45;;
29452;SDS011;16424;50.956;5.320;2023-02-28T01:15:42;10.90;;;6.10;;
29452;SDS011;16424;50.956;5.320;2023-02-28T01:20:38;11.05;;;5.93;;
29452;SDS011;16424;50.956;5.320;2023-02-28T01:23:04;12.20;;;5.80;;
29452;SDS011;16424;50.956;5.320;2023-02-28T01:25:30;12.40;;;6.72;;
29452;SDS011;16424;50.956;5.320;2023-02-28T01:27:55;11.23;;;6.93;;
29452;SDS011;16424;50.956;5.320;2023-02-28T01:30:21;20.30;;;7.97;;
29452;SDS011;16424;50.956;5.320;2023-02-28T01:32:47;11.45;;;6.82;;
29452;SDS011;16424;50.956;5.320;2023-02-28T01:35:12;12.05;;;6.30;;
29452;SDS011;16424;50.956;5.320;2023-02-28T01:37:38;14.77;;;7.25;;
29452;SDS011;16424;50.956;5.320;2023-02-28T01:40:04;14.93;;;6.57;;
29452;SDS011;16424;50.956;5.320;2023-02-28T01:42:30;12.57;;;6.18;;
29452;SDS011;16424;50.956;5.320;2023-02-28T01:47:40;17.13;;;6.72;;
29452;SDS011;16424;50.956;5.320;2023-02-28T01:50:09;12.43;;;7.10;;
29452;SDS011;16424;50.956;5.320;2023-02-28T01:52:39;11.98;;;6.25;;
29452;SDS011;16424;50.956;5.320;2023-02-28T01:55:06;16.40;;;6.55;;
29452;SDS011;16424;50.956;5.320;2023-02-28T01:57:36;10.90;;;6.85;;
29452;SDS011;16424;50.956;5.320;2023-02-28T02:00:13;12.68;;;6.68;;
29452;SDS011;16424;50.956;5.320;2023-02-28T02:02:45;13.02;;;7.30;;
29452;SDS011;16424;50.956;5.320;2023-02-28T02:05:18;8.35;;;6.03;;
29452;SDS011;16424;50.956;5.320;2023-02-28T02:07:46;9.90;;;6.60;;
29452;SDS011;16424;50.956;5.320;2023-02-28T02:10:15;14.70;;;7.35;;
29452;SDS011;16424;50.956;5.320;2023-02-28T02:13:08;17.35;;;6.97;;
29452;SDS011;16424;50.956;5.320;2023-02-28T02:18:30;13.13;;;6.70;;
29452;SDS011;16424;50.956;5.320;2023-02-28T02:23:48;12.98;;;7.57;;
29452;SDS011;16424;50.956;5.320;2023-02-28T02:26:52;11.20;;;6.60;;
29452;SDS011;16424;50.956;5.320;2023-02-28T02:40:11;12.52;;;7.05;;
29452;SDS011;16424;50.956;5.320;2023-02-28T02:42:44;13.48;;;7.75;;
29452;SDS011;16424;50.956;5.320;2023-02-28T02:47:47;11.88;;;7.18;;
29452;SDS011;16424;50.956;5.320;2023-02-28T02:50:17;15.75;;;7.55;;
29452;SDS011;16424;50.956;5.320;2023-02-28T02:52:50;12.60;;;6.47;;
29452;SDS011;16424;50.956;5.320;2023-02-28T02:55:20;12.85;;;6.95;;
29452;SDS011;16424;50.956;5.320;2023-02-28T02:57:49;14.52;;;8.02;;
29452;SDS011;16424;50.956;5.320;2023-02-28T03:00:20;11.07;;;7.55;;
29452;SDS011;16424;50.956;5.320;2023-02-28T03:02:54;10.05;;;6.93;;
29452;SDS011;16424;50.956;5.320;2023-02-28T03:05:25;16.75;;;7.18;;
29452;SDS011;16424;50.956;5.320;2023-02-28T03:07:58;11.52;;;7.35;;
29452;SDS011;16424;50.956;5.320;2023-02-28T03:13:31;16.15;;;8.07;;
29452;SDS011;16424;50.956;5.320;2023-02-28T03:18:54;16.85;;;7.97;;
29452;SDS011;16424;50.956;5.320;2023-02-28T03:21:40;16.70;;;7.53;;
29452;SDS011;16424;50.956;5.320;2023-02-28T03:27:11;14.55;;;8.02;;
29452;SDS011;16424;50.956;5.320;2023-02-28T03:30:18;17.38;;;8.48;;
29452;SDS011;16424;50.956;5.320;2023-02-28T03:32:57;11.77;;;7.57;;
29452;SDS011;16424;50.956;5.320;2023-02-28T03:35:31;12.02;;;8.18;;
29452;SDS011;16424;50.956;5.320;2023-02-28T03:38:04;12.02;;;7.28;;
29452;SDS011;16424;50.956;5.320;2023-02-28T03:41:01;17.52;;;7.97;;
29452;SDS011;16424;50.956;5.320;2023-02-28T03:43:35;12.50;;;8.02;;
29452;SDS011;16424;50.956;5.320;2023-02-28T03:46:05;13.25;;;8.38;;
29452;SDS011;16424;50.956;5.320;2023-02-28T03:48:45;12.55;;;7.57;;
29452;SDS011;16424;50.956;5.320;2023-02-28T03:51:17;13.40;;;7.65;;
29452;SDS011;16424;50.956;5.320;2023-02-28T03:53:50;12.13;;;7.75;;
29452;SDS011;16424;50.956;5.320;2023-02-28T03:56:20;12.00;;;7.53;;
29452;SDS011;16424;50.956;5.320;2023-02-28T03:58:53;12.65;;;7.88;;
29452;SDS011;16424;50.956;5.320;2023-02-28T04:01:23;11.57;;;7.18;;
29452;SDS011;16424;50.956;5.320;2023-02-28T04:03:57;15.13;;;7.88;;
29452;SDS011;16424;50.956;5.320;2023-02-28T04:06:23;15.43;;;7.95;;
29452;SDS011;16424;50.956;5.320;2023-02-28T04:08:49;13.88;;;8.00;;
29452;SDS011;16424;50.956;5.320;2023-02-28T04:13:52;14.18;;;7.90;;
29452;SDS011;16424;50.956;5.320;2023-02-28T04:16:17;14.57;;;8.30;;
29452;SDS011;16424;50.956;5.320;2023-02-28T04:18:43;14.25;;;8.13;;
29452;SDS011;16424;50.956;5.320;2023-02-28T04:21:09;15.48;;;7.97;;
29452;SDS011;16424;50.956;5.320;2023-02-28T04:23:35;15.05;;;8.88;;
29452;SDS011;16424;50.956;5.320;2023-02-28T04:26:01;13.63;;;8.68;;
29452;SDS011;16424;50.956;5.320;2023-02-28T04:28:27;14.30;;;8.52;;
29452;SDS011;16424;50.956;5.320;2023-02-28T04:30:56;14.35;;;7.75;;
29452;SDS011;16424;50.956;5.320;2023-02-28T04:33:27;9.73;;;6.38;;
29452;SDS011;16424;50.956;5.320;2023-02-28T04:36:00;15.65;;;7.93;;
29452;SDS011;16424;50.956;5.320;2023-02-28T04:38:28;17.10;;;8.70;;
29452;SDS011;16424;50.956;5.320;2023-02-28T04:40:56;16.73;;;8.50;;
29452;SDS011;16424;50.956;5.320;2023-02-28T04:43:23;18.00;;;8.38;;
29452;SDS011;16424;50.956;5.320;2023-02-28T04:45:48;17.63;;;8.13;;
29452;SDS011;16424;50.956;5.320;2023-02-28T04:48:14;14.95;;;8.80;;
29452;SDS011;16424;50.956;5.320;2023-02-28T04:50:40;13.35;;;7.38;;
29452;SDS011;16424;50.956;5.320;2023-02-28T04:53:05;14.82;;;7.93;;
29452;SDS011;16424;50.956;5.320;2023-02-28T04:55:31;15.18;;;8.40;;
29452;SDS011;16424;50.956;5.320;2023-02-28T04:57:56;14.07;;;8.35;;
29452;SDS011;16424;50.956;5.320;2023-02-28T05:00:22;17.88;;;8.75;;
29452;SDS011;16424;50.956;5.320;2023-02-28T05:02:48;19.20;;;9.05;;
29452;SDS011;16424;50.956;5.320;2023-02-28T05:05:14;12.40;;;7.88;;
29452;SDS011;16424;50.956;5.320;2023-02-28T05:07:43;15.88;;;9.25;;
29452;SDS011;16424;50.956;5.320;2023-02-28T05:10:09;16.88;;;8.68;;
29452;SDS011;16424;50.956;5.320;2023-02-28T05:12:36;15.82;;;8.10;;
29452;SDS011;16424;50.956;5.320;2023-02-28T05:15:02;18.88;;;8.40;;
29452;SDS011;16424;50.956;5.320;2023-02-28T05:17:29;18.80;;;8.68;;
29452;SDS011;16424;50.956;5.320;2023-02-28T05:19:55;15.60;;;9.52;;
29452;SDS011;16424;50.956;5.320;2023-02-28T05:22:21;15.43;;;8.57;;
29452;SDS011;16424;50.956;5.320;2023-02-28T05:24:47;17.23;;;9.55;;
29452;SDS011;16424;50.956;5.320;2023-02-28T05:27:12;14.73;;;9.05;;
29452;SDS011;16424;50.956;5.320;2023-02-28T05:29:38;17.05;;;9.23;;
29452;SDS011;16424;50.956;5.320;2023-02-28T05:32:10;38.03;;;11.98;;
29452;SDS011;16424;50.956;5.320;2023-02-28T05:34:37;13.82;;;10.25;;
29452;SDS011;16424;50.956;5.320;2023-02-28T05:37:03;22.80;;;11.88;;
29452;SDS011;16424;50.956;5.320;2023-02-28T05:39:29;29.42;;;11.93;;
29452;SDS011;16424;50.956;5.320;2023-02-28T05:41:54;35.30;;;12.13;;
29452;SDS011;16424;50.956;5.320;2023-02-28T05:44:20;21.60;;;10.45;;
29452;SDS011;16424;50.956;5.320;2023-02-28T05:46:46;27.88;;;11.45;;
29452;SDS011;16424;50.956;5.320;2023-02-28T05:49:11;19.67;;;10.35;;
29452;SDS011;16424;50.956;5.320;2023-02-28T05:51:37;21.13;;;12.18;;
29452;SDS011;16424;50.956;5.320;2023-02-28T05:54:04;19.20;;;10.98;;
29452;SDS011;16424;50.956;5.320;2023-02-28T05:56:31;20.45;;;11.40;;
29452;SDS011;16424;50.956;5.320;2023-02-28T05:58:59;24.83;;;11.30;;
29452;SDS011;16424;50.956;5.320;2023-02-28T06:01:41;15.88;;;10.77;;
29452;SDS011;16424;50.956;5.320;2023-02-28T06:04:12;28.45;;;11.10;;
29452;SDS011;16424;50.956;5.320;2023-02-28T06:06:42;22.70;;;11.07;;
29452;SDS011;16424;50.956;5.320;2023-02-28T06:09:09;18.10;;;10.27;;
29452;SDS011;16424;50.956;5.320;2023-02-28T06:11:35;19.85;;;11.13;;
29452;SDS011;16424;50.956;5.320;2023-02-28T06:14:01;20.63;;;12.02;;
29452;SDS011;16424;50.956;5.320;2023-02-28T06:16:28;27.05;;;12.15;;
29452;SDS011;16424;50.956;5.320;2023-02-28T06:18:57;20.67;;;11.07;;
29452;SDS011;16424;50.956;5.320;2023-02-28T06:21:24;20.52;;;11.55;;
29452;SDS011;16424;50.956;5.320;2023-02-28T06:23:49;17.75;;;10.40;;
29452;SDS011;16424;50.956;5.320;2023-02-28T06:26:15;61.28;;;12.38;;
29452;SDS011;16424;50.956;5.320;2023-02-28T06:28:41;21.75;;;11.98;;
29452;SDS011;16424;50.956;5.320;2023-02-28T06:31:08;22.63;;;11.05;;
29452;SDS011;16424;50.956;5.320;2023-02-28T06:33:35;32.13;;;11.85;;
29452;SDS011;16424;50.956;5.320;2023-02-28T06:36:02;52.40;;;12.43;;
29452;SDS011;16424;50.956;5.320;2023-02-28T06:38:28;27.08;;;12.38;;
29452;SDS011;16424;50.956;5.320;2023-02-28T06:40:54;27.33;;;11.40;;
29452;SDS011;16424;50.956;5.320;2023-02-28T06:43:22;23.48;;;12.10;;
29452;SDS011;16424;50.956;5.320;2023-02-28T06:45:48;26.55;;;11.57;;
29452;SDS011;16424;50.956;5.320;2023-02-28T06:48:14;16.88;;;12.13;;
29452;SDS011;16424;50.956;5.320;2023-02-28T06:50:39;24.42;;;11.23;;
29452;SDS011;16424;50.956;5.320;2023-02-28T06:53:05;19.60;;;10.15;;
29452;SDS011;16424;50.956;5.320;2023-02-28T06:55:31;21.88;;;11.55;;
29452;SDS011;16424;50.956;5.320;2023-02-28T06:57:57;23.77;;;10.52;;
29452;SDS011;16424;50.956;5.320;2023-02-28T07:00:23;21.08;;;9.52;;
29452;SDS011;16424;50.956;5.320;2023-02-28T07:02:50;21.55;;;10.20;;
29452;SDS011;16424;50.956;5.320;2023-02-28T07:05:15;18.65;;;8.82;;
29452;SDS011;16424;50.956;5.320;2023-02-28T07:07:41;14.02;;;8.80;;
29452;SDS011;16424;50.956;5.320;2023-02-28T07:10:10;14.95;;;8.43;;
29452;SDS011;16424;50.956;5.320;2023-02-28T07:12:36;15.02;;;7.57;;
29452;SDS011;16424;50.956;5.320;2023-02-28T07:15:03;19.05;;;7.43;;
29452;SDS011;16424;50.956;5.320;2023-02-28T07:17:29;12.25;;;7.20;;
29452;SDS011;16424;50.956;5.320;2023-02-28T07:19:55;11.88;;;6.57;;
29452;SDS011;16424;50.956;5.320;2023-02-28T07:22:21;14.88;;;6.45;;
29452;SDS011;16424;50.956;5.320;2023-02-28T07:24:46;15.20;;;6.88;;
29452;SDS011;16424;50.956;5.320;2023-02-28T07:27:12;18.60;;;6.47;;
29452;SDS011;16424;50.956;5.320;2023-02-28T07:29:50;13.38;;;5.82;;
29452;SDS011;16424;50.956;5.320;2023-02-28T07:32:17;13.95;;;6.82;;
29452;SDS011;16424;50.956;5.320;2023-02-28T07:34:43;15.55;;;6.25;;
29452;SDS011;16424;50.956;5.320;2023-02-28T07:37:09;12.15;;;5.75;;
29452;SDS011;16424;50.956;5.320;2023-02-28T07:39:35;14.13;;;6.97;;
29452;SDS011;16424;50.956;5.320;2023-02-28T07:42:04;10.82;;;5.90;;
29452;SDS011;16424;50.956;5.320;2023-02-28T07:44:31;10.10;;;5.53;;
29452;SDS011;16424;50.956;5.320;2023-02-28T07:46:57;9.07;;;5.25;;
29452;SDS011;16424;50.956;5.320;2023-02-28T07:49:23;12.90;;;5.65;;
29452;SDS011;16424;50.956;5.320;2023-02-28T07:51:48;10.48;;;5.60;;
29452;SDS011;16424;50.956;5.320;2023-02-28T07:54:14;13.00;;;5.40;;
29452;SDS011;16424;50.956;5.320;2023-02-28T07:56:40;9.98;;;5.93;;
29452;SDS011;16424;50.956;5.320;2023-02-28T07:59:05;7.65;;;4.57;;
29452;SDS011;16424;50.956;5.320;2023-02-28T08:01:31;9.10;;;4.30;;
29452;SDS011;16424;50.956;5.320;2023-02-28T08:03:56;11.88;;;5.35;;
29452;SDS011;16424;50.956;5.320;2023-02-28T08:06:23;6.88;;;4.68;;
29452;SDS011;16424;50.956;5.320;2023-02-28T08:08:50;9.65;;;4.63;;
29452;SDS011;16424;50.956;5.320;2023-02-28T08:11:16;8.15;;;4.03;;
29452;SDS011;16424;50.956;5.320;2023-02-28T08:13:42;11.38;;;4.90;;
29452;SDS011;16424;50.956;5.320;2023-02-28T08:16:09;10.45;;;5.22;;
29452;SDS011;16424;50.956;5.320;2023-02-28T08:18:36;7.43;;;4.75;;
29452;SDS011;16424;50.956;5.320;2023-02-28T08:21:08;10.73;;;4.78;;
29452;SDS011;16424;50.956;5.320;2023-02-28T08:23:34;12.40;;;5.50;;
29452;SDS011;16424;50.956;5.320;2023-02-28T08:26:00;8.18;;;5.10;;
29452;SDS011;16424;50.956;5.320;2023-02-28T08:28:26;8.00;;;4.15;;
29452;SDS011;16424;50.956;5.320;2023-02-28T08:30:52;12.80;;;5.28;;
29452;SDS011;16424;50.956;5.320;2023-02-28T08:33:18;9.18;;;3.75;;
29452;SDS011;16424;50.956;5.320;2023-02-28T08:35:44;13.18;;;4.75;;
29452;SDS011;16424;50.956;5.320;2023-02-28T08:38:09;8.00;;;4.43;;
29452;SDS011;16424;50.956;5.320;2023-02-28T08:40:35;11.38;;;4.63;;
29452;SDS011;16424;50.956;5.320;2023-02-28T08:43:01;6.68;;;4.50;;
29452;SDS011;16424;50.956;5.320;2023-02-28T08:45:26;7.97;;;4.25;;
29452;SDS011;16424;50.956;5.320;2023-02-28T08:47:53;6.30;;;3.80;;
29452;SDS011;16424;50.956;5.320;2023-02-28T08:50:20;9.88;;;4.20;;
29452;SDS011;16424;50.956;5.320;2023-02-28T08:52:46;8.45;;;4.60;;
29452;SDS011;16424;50.956;5.320;2023-02-28T08:55:11;10.13;;;4.10;;
29452;SDS011;16424;50.956;5.320;2023-02-28T08:57:37;8.38;;;3.83;;
29452;SDS011;16424;50.956;5.320;2023-02-28T09:00:03;9.18;;;3.60;;
29452;SDS011;16424;50.956;5.320;2023-02-28T09:02:32;8.18;;;3.60;;
29452;SDS011;16424;50.956;5.320;2023-02-28T09:04:57;8.10;;;3.58;;
29452;SDS011;16424;50.956;5.320;2023-02-28T09:07:23;6.60;;;3.67;;
29452;SDS011;16424;50.956;5.320;2023-02-28T09:09:49;6.97;;;3.38;;
29452;SDS011;16424;50.956;5.320;2023-02-28T09:12:26;6.38;;;3.30;;
29452;SDS011;16424;50.956;5.320;2023-02-28T09:14:56;6.47;;;3.20;;
29452;SDS011;16424;50.956;5.320;2023-02-28T09:17:22;6.53;;;2.95;;
29452;SDS011;16424;50.956;5.320;2023-02-28T09:19:48;5.28;;;2.42;;
29452;SDS011;16424;50.956;5.320;2023-02-28T09:22:14;6.47;;;3.35;;
29452;SDS011;16424;50.956;5.320;2023-02-28T09:24:40;5.82;;;2.78;;
29452;SDS011;16424;50.956;5.320;2023-02-28T09:27:05;3.78;;;2.75;;
29452;SDS011;16424;50.956;5.320;2023-02-28T09:29:32;4.50;;;2.30;;
29452;SDS011;16424;50.956;5.320;2023-02-28T09:31:59;6.45;;;1.98;;
29452;SDS011;16424;50.956;5.320;2023-02-28T09:34:25;4.60;;;2.15;;
29452;SDS011;16424;50.956;5.320;2023-02-28T09:36:51;4.65;;;2.25;;
29452;SDS011;16424;50.956;5.320;2023-02-28T09:39:19;5.18;;;2.38;;
29452;SDS011;16424;50.956;5.320;2023-02-28T09:41:47;4.07;;;1.98;;
29452;SDS011;16424;50.956;5.320;2023-02-28T09:44:21;3.85;;;2.17;;
29452;SDS011;16424;50.956;5.320;2023-02-28T09:46:55;2.17;;;1.67;;
29452;SDS011;16424;50.956;5.320;2023-02-28T09:49:41;3.10;;;1.85;;
29452;SDS011;16424;50.956;5.320;2023-02-28T09:52:16;4.13;;;2.20;;
29452;SDS011;16424;50.956;5.320;2023-02-28T09:54:44;3.75;;;2.35;;
29452;SDS011;16424;50.956;5.320;2023-02-28T09:57:16;3.85;;;1.88;;
29452;SDS011;16424;50.956;5.320;2023-02-28T10:05:40;3.65;;;2.25;;
29452;SDS011;16424;50.956;5.320;2023-02-28T10:08:50;3.22;;;1.75;;
29452;SDS011;16424;50.956;5.320;2023-02-28T10:11:11;4.30;;;1.88;;
29452;SDS011;16424;50.956;5.320;2023-02-28T10:16:37;3.05;;;2.15;;
29452;SDS011;16424;50.956;5.320;2023-02-28T10:19:20;5.60;;;2.17;;
29452;SDS011;16424;50.956;5.320;2023-02-28T10:21:59;4.00;;;1.90;;
29452;SDS011;16424;50.956;5.320;2023-02-28T10:24:35;3.95;;;2.13;;
29452;SDS011;16424;50.956;5.320;2023-02-28T10:29:49;3.88;;;1.95;;
29452;SDS011;16424;50.956;5.320;2023-02-28T10:32:20;5.50;;;1.70;;
29452;SDS011;16424;50.956;5.320;2023-02-28T10:35:23;2.80;;;1.73;;
29452;SDS011;16424;50.956;5.320;2023-02-28T10:37:44;2.47;;;2.08;;
29452;SDS011;16424;50.956;5.320;2023-02-28T10:40:33;2.97;;;2.20;;
29452;SDS011;16424;50.956;5.320;2023-02-28T10:45:38;4.53;;;1.83;;
29452;SDS011;16424;50.956;5.320;2023-02-28T10:50:42;2.40;;;1.80;;
29452;SDS011;16424;50.956;5.320;2023-02-28T11:01:37;3.67;;;2.00;;
29452;SDS011;16424;50.956;5.320;2023-02-28T11:04:18;3.00;;;1.85;;
29452;SDS011;16424;50.956;5.320;2023-02-28T11:06:47;5.97;;;1.67;;
29452;SDS011;16424;50.956;5.320;2023-02-28T11:09:32;2.58;;;1.60;;
29452;SDS011;16424;50.956;5.320;2023-02-28T11:12:02;4.25;;;2.42;;
29452;SDS011;16424;50.956;5.320;2023-02-28T11:14:32;4.13;;;2.03;;
29452;SDS011;16424;50.956;5.320;2023-02-28T11:20:02;2.15;;;1.65;;
29452;SDS011;16424;50.956;5.320;2023-02-28T11:22:36;2.28;;;1.63;;
29452;SDS011;16424;50.956;5.320;2023-02-28T11:25:09;9.13;;;1.90;;
29452;SDS011;16424;50.956;5.320;2023-02-28T11:27:48;6.32;;;1.80;;
29452;SDS011;16424;50.956;5.320;2023-02-28T11:32:53;3.67;;;2.13;;
29452;SDS011;16424;50.956;5.320;2023-02-28T11:37:56;3.17;;;2.08;;
29452;SDS011;16424;50.956;5.320;2023-02-28T11:48:41;3.90;;;2.30;;
29452;SDS011;16424;50.956;5.320;2023-02-28T11:51:28;4.25;;;2.17;;
29452;SDS011;16424;50.956;5.320;2023-02-28T11:57:32;2.38;;;1.67;;
29452;SDS011;16424;50.956;5.320;2023-02-28T12:03:06;2.38;;;1.75;;
29452;SDS011;16424;50.956;5.320;2023-02-28T12:05:44;3.38;;;2.05;;
29452;SDS011;16424;50.956;5.320;2023-02-28T12:13:24;4.10;;;1.98;;
29452;SDS011;16424;50.956;5.320;2023-02-28T12:27:20;1.85;;;1.60;;
29452;SDS011;16424;50.956;5.320;2023-02-28T12:30:00;2.70;;;2.10;;
29452;SDS011;16424;50.956;5.320;2023-02-28T12:32:41;3.63;;;2.25;;
29452;SDS011;16424;50.956;5.320;2023-02-28T12:35:14;3.38;;;1.90;;
29452;SDS011;16424;50.956;5.320;2023-02-28T12:40:27;4.78;;;2.17;;
29452;SDS011;16424;50.956;5.320;2023-02-28T12:43:02;7.03;;;2.38;;
29452;SDS011;16424;50.956;5.320;2023-02-28T12:48:24;7.05;;;2.05;;
29452;SDS011;16424;50.956;5.320;2023-02-28T12:50:54;3.67;;;2.38;;
29452;SDS011;16424;50.956;5.320;2023-02-28T12:53:41;3.20;;;2.25;;
29452;SDS011;16424;50.956;5.320;2023-02-28T12:56:35;4.30;;;2.00;;
29452;SDS011;16424;50.956;5.320;2023-02-28T12:59:23;3.92;;;2.42;;
29452;SDS011;16424;50.956;5.320;2023-02-28T13:09:52;3.00;;;2.42;;
29452;SDS011;16424;50.956;5.320;2023-02-28T13:12:20;6.22;;;2.35;;
29452;SDS011;16424;50.956;5.320;2023-02-28T13:14:48;3.72;;;2.08;;
29452;SDS011;16424;50.956;5.320;2023-02-28T13:17:21;4.63;;;2.30;;
29452;SDS011;16424;50.956;5.320;2023-02-28T13:23:04;3.83;;;2.33;;
29452;SDS011;16424;50.956;5.320;2023-02-28T13:27:48;4.88;;;2.22;;
29452;SDS011;16424;50.956;5.320;2023-02-28T13:35:45;5.18;;;2.67;;
29452;SDS011;16424;50.956;5.320;2023-02-28T13:38:32;17.77;;;3.50;;
29452;SDS011;16424;50.956;5.320;2023-02-28T13:44:06;3.65;;;2.03;;
29452;SDS011;16424;50.956;5.320;2023-02-28T13:51:50;8.85;;;2.75;;
29452;SDS011;16424;50.956;5.320;2023-02-28T13:54:19;4.60;;;3.00;;
29452;SDS011;16424;50.956;5.320;2023-02-28T13:56:50;2.67;;;2.22;;
29452;SDS011;16424;50.956;5.320;2023-02-28T13:59:38;4.60;;;2.20;;
29452;SDS011;16424;50.956;5.320;2023-02-28T14:05:00;4.60;;;2.10;;
29452;SDS011;16424;50.956;5.320;2023-02-28T14:07:32;3.47;;;2.55;;
29452;SDS011;16424;50.956;5.320;2023-02-28T14:10:06;3.60;;;2.40;;
29452;SDS011;16424;50.956;5.320;2023-02-28T14:12:54;5.40;;;2.40;;
29452;SDS011;16424;50.956;5.320;2023-02-28T14:18:16;7.93;;;2.72;;
29452;SDS011;16424;50.956;5.320;2023-02-28T14:20:52;6.95;;;2.92;;
29452;SDS011;16424;50.956;5.320;2023-02-28T14:31:54;4.85;;;2.90;;
29452;SDS011;16424;50.956;5.320;2023-02-28T14:37:29;4.10;;;2.63;;
29452;SDS011;16424;50.956;5.320;2023-02-28T14:39:58;3.67;;;2.60;;
29452;SDS011;16424;50.956;5.320;2023-02-28T14:43:18;3.42;;;2.65;;
29452;SDS011;16424;50.956;5.320;2023-02-28T14:45:22;5.10;;;2.80;;
29452;SDS011;16424;50.956;5.320;2023-02-28T14:47:51;3.30;;;2.72;;
29452;SDS011;16424;50.956;5.320;2023-02-28T14:50:21;3.08;;;2.40;;
29452;SDS011;16424;50.956;5.320;2023-02-28T14:52:52;3.85;;;2.45;;
29452;SDS011;16424;50.956;5.320;2023-02-28T14:55:21;3.83;;;2.30;;
29452;SDS011;16424;50.956;5.320;2023-02-28T14:57:51;3.10;;;2.42;;
29452;SDS011;16424;50.956;5.320;2023-02-28T15:02:55;6.70;;;2.90;;
29452;SDS011;16424;50.956;5.320;2023-02-28T15:05:29;5.30;;;2.65;;
29452;SDS011;16424;50.956;5.320;2023-02-28T15:08:10;5.18;;;2.15;;
29452;SDS011;16424;50.956;5.320;2023-02-28T15:10:44;3.50;;;2.15;;
29452;SDS011;16424;50.956;5.320;2023-02-28T15:13:16;4.75;;;2.42;;
29452;SDS011;16424;50.956;5.320;2023-02-28T15:18:10;5.30;;;2.63;;
29452;SDS011;16424;50.956;5.320;2023-02-28T15:20:48;5.22;;;2.55;;
29452;SDS011;16424;50.956;5.320;2023-02-28T15:23:15;3.97;;;2.30;;
29452;SDS011;16424;50.956;5.320;2023-02-28T15:25:42;9.13;;;2.58;;
29452;SDS011;16424;50.956;5.320;2023-02-28T15:28:10;5.85;;;2.80;;
29452;SDS011;16424;50.956;5.320;2023-02-28T15:30:49;5.88;;;2.38;;
29452;SDS011;16424;50.956;5.320;2023-02-28T15:33:21;5.30;;;2.35;;
29452;SDS011;16424;50.956;5.320;2023-02-28T15:35:50;5.45;;;2.45;;
29452;SDS011;16424;50.956;5.320;2023-02-28T15:38:24;3.92;;;2.80;;
29452;SDS011;16424;50.956;5.320;2023-02-28T15:40:55;7.85;;;2.58;;
29452;SDS011;16424;50.956;5.320;2023-02-28T15:43:30;4.32;;;2.70;;
29452;SDS011;16424;50.956;5.320;2023-02-28T15:48:32;3.80;;;2.42;;
29452;SDS011;16424;50.956;5.320;2023-02-28T15:51:34;5.03;;;2.35;;
29452;SDS011;16424;50.956;5.320;2023-02-28T15:54:04;5.07;;;2.85;;
29452;SDS011;16424;50.956;5.320;2023-02-28T15:56:38;3.92;;;2.40;;
29452;SDS011;16424;50.956;5.320;2023-02-28T15:59:14;9.75;;;2.75;;
29452;SDS011;16424;50.956;5.320;2023-02-28T16:01:43;7.05;;;2.75;;
29452;SDS011;16424;50.956;5.320;2023-02-28T16:04:16;16.88;;;2.80;;
29452;SDS011;16424;50.956;5.320;2023-02-28T16:06:44;10.68;;;3.20;;
29452;SDS011;16424;50.956;5.320;2023-02-28T16:09:12;5.97;;;2.60;;
29452;SDS011;16424;50.956;5.320;2023-02-28T16:11:48;3.95;;;2.70;;
29452;SDS011;16424;50.956;5.320;2023-02-28T16:14:17;4.95;;;3.00;;
29452;SDS011;16424;50.956;5.320;2023-02-28T16:16:46;5.78;;;3.15;;
29452;SDS011;16424;50.956;5.320;2023-02-28T16:19:14;7.68;;;3.50;;
29452;SDS011;16424;50.956;5.320;2023-02-28T16:21:40;10.77;;;3.22;;
29452;SDS011;16424;50.956;5.320;2023-02-28T16:24:06;6.07;;;3.03;;
29452;SDS011;16424;50.956;5.320;2023-02-28T16:26:32;12.85;;;5.18;;
29452;SDS011;16424;50.956;5.320;2023-02-28T16:28:59;6.97;;;3.97;;
29452;SDS011;16424;50.956;5.320;2023-02-28T16:31:28;4.82;;;2.83;;
29452;SDS011;16424;50.956;5.320;2023-02-28T16:33:54;6.30;;;2.80;;
29452;SDS011;16424;50.956;5.320;2023-02-28T16:36:22;3.58;;;2.80;;
29452;SDS011;16424;50.956;5.320;2023-02-28T16:38:51;6.65;;;3.17;;
29452;SDS011;16424;50.956;5.320;2023-02-28T16:41:20;7.75;;;2.83;;
29452;SDS011;16424;50.956;5.320;2023-02-28T16:43:50;3.90;;;2.20;;
29452;SDS011;16424;50.956;5.320;2023-02-28T16:46:17;4.93;;;3.00;;
29452;SDS011;16424;50.956;5.320;2023-02-28T16:48:44;5.85;;;3.22;;
29452;SDS011;16424;50.956;5.320;2023-02-28T16:51:13;4.78;;;2.78;;
29452;SDS011;16424;50.956;5.320;2023-02-28T16:53:40;6.32;;;2.97;;
29452;SDS011;16424;50.956;5.320;2023-02-28T16:56:06;8.90;;;2.97;;
29452;SDS011;16424;50.956;5.320;2023-02-28T16:58:36;8.75;;;3.83;;
29452;SDS011;16424;50.956;5.320;2023-02-28T17:01:02;5.75;;;3.20;;
29452;SDS011;16424;50.956;5.320;2023-02-28T17:03:28;11.60;;;3.35;;
29452;SDS011;16424;50.956;5.320;2023-02-28T17:05:54;9.38;;;3.97;;
29452;SDS011;16424;50.956;5.320;2023-02-28T17:08:19;5.03;;;2.92;;
29452;SDS011;16424;50.956;5.320;2023-02-28T17:10:45;5.57;;;3.30;;
29452;SDS011;16424;50.956;5.320;2023-02-28T17:13:12;4.97;;;3.08;;
29452;SDS011;16424;50.956;5.320;2023-02-28T17:15:38;5.28;;;3.35;;
29452;SDS011;16424;50.956;5.320;2023-02-28T17:18:05;5.03;;;3.28;;
29452;SDS011;16424;50.956;5.320;2023-02-28T17:20:31;12.88;;;5.00;;
29452;SDS011;16424;50.956;5.320;2023-02-28T17:22:57;8.10;;;3.90;;
29452;SDS011;16424;50.956;5.320;2023-02-28T17:25:23;6.32;;;3.97;;
29452;SDS011;16424;50.956;5.320;2023-02-28T17:27:49;6.90;;;3.83;;
29452;SDS011;16424;50.956;5.320;2023-02-28T17:30:19;9.00;;;4.05;;
29452;SDS011;16424;50.956;5.320;2023-02-28T17:32:47;6.95;;;3.22;;